Aviation Digital Data Service (ADDS)

Output produced by TAFs form (2223 UTC 17 October 2017)
found at http://aviationweather.gov/adds/tafs/
 
KGUP 171720Z 1718/1818 VRB03KT P6SM FEW250 
     FM172000 26007KT P6SM FEW250 
     FM180100 VRB03KT P6SM SCT250